Archival Weather

Chicago O'Hare International

Chicago, Illinois (KORD)

Report from: Saturday, March 31, 2012 11:22 AM CDT
Current time: Wednesday, December 6, 2023 2:10 AM CST

Current weather – Weather history – Daily summaries
Weather forecast

Temperature6.0°C (42.8°F)
Wind chill3.3°C (38.0°F)
Dew point1.0°C (33.8°F)
Winds 7 kts (3.6 m/s, 8.1 mph) East (90°)
Visibility10 mi. (16.1 km)
Clouds Ceiling: Overcast 1,600 ft. (488 m)
Altimeter29.98 in.Hg (1015 mB)
Relative humidity70 %
Density altitude-1,054 ft. (-321 m)
Remarks System requires maintenance
Special weather observation
Automated weather observing station with precipitation discriminator
Flight conditions Marginal Visual Meteorological Conditions
Raw data2012-03-31 16:22 KORD 311622Z 09007KT 10SM OVC016 06/01 A2998 RMK AO2 $ SPECI
An error has occurred. This application may no longer respond until reloaded. Reload 🗙